sensor_id;sensor_type;location;lat;lon;timestamp;P1;durP1;ratioP1;P2;durP2;ratioP2
41556;SDS011;27720;51.992;5.890;2022-11-22T15:59:23;1.65;;;0.85;;
41556;SDS011;27720;51.992;5.890;2022-11-22T16:02:14;4.40;;;1.27;;
41556;SDS011;27720;51.992;5.890;2022-11-22T16:04:47;0.93;;;0.80;;
41556;SDS011;27720;51.992;5.890;2022-11-22T16:10:16;2.58;;;0.68;;
41556;SDS011;27720;51.992;5.890;2022-11-22T16:12:45;1.85;;;0.73;;
41556;SDS011;27720;51.992;5.890;2022-11-22T16:15:31;1.83;;;0.90;;
41556;SDS011;27720;51.992;5.890;2022-11-22T16:21:02;0.98;;;0.60;;
41556;SDS011;27720;51.992;5.890;2022-11-22T16:23:35;1.00;;;0.80;;
41556;SDS011;27720;51.992;5.890;2022-11-22T16:28:44;1.85;;;1.10;;
41556;SDS011;27720;51.992;5.890;2022-11-22T16:33:46;2.17;;;1.05;;
41556;SDS011;27720;51.992;5.890;2022-11-22T16:36:15;1.52;;;1.20;;
41556;SDS011;27720;51.992;5.890;2022-11-22T16:38:52;1.30;;;0.88;;
41556;SDS011;27720;51.992;5.890;2022-11-22T16:41:22;2.03;;;1.00;;
41556;SDS011;27720;51.992;5.890;2022-11-22T16:44:07;1.75;;;1.30;;
41556;SDS011;27720;51.992;5.890;2022-11-22T16:46:48;1.83;;;1.10;;
41556;SDS011;27720;51.992;5.890;2022-11-22T16:52:17;4.03;;;1.27;;
41556;SDS011;27720;51.992;5.890;2022-11-22T16:55:13;1.50;;;1.10;;
41556;SDS011;27720;51.992;5.890;2022-11-22T16:57:41;1.90;;;1.08;;
41556;SDS011;27720;51.992;5.890;2022-11-22T17:03:22;2.55;;;1.77;;
41556;SDS011;27720;51.992;5.890;2022-11-22T17:06:00;1.50;;;1.00;;
41556;SDS011;27720;51.992;5.890;2022-11-22T17:08:28;3.33;;;1.33;;
41556;SDS011;27720;51.992;5.890;2022-11-22T17:11:32;1.83;;;1.45;;
41556;SDS011;27720;51.992;5.890;2022-11-22T17:14:19;2.17;;;1.17;;
41556;SDS011;27720;51.992;5.890;2022-11-22T17:17:29;1.77;;;1.20;;
41556;SDS011;27720;51.992;5.890;2022-11-22T17:19:58;3.85;;;1.73;;
41556;SDS011;27720;51.992;5.890;2022-11-22T17:22:33;2.35;;;1.65;;
41556;SDS011;27720;51.992;5.890;2022-11-22T17:25:04;4.55;;;2.45;;
41556;SDS011;27720;51.992;5.890;2022-11-22T17:27:38;4.35;;;2.60;;
41556;SDS011;27720;51.992;5.890;2022-11-22T17:30:21;3.70;;;2.63;;
41556;SDS011;27720;51.992;5.890;2022-11-22T17:40:56;6.35;;;3.70;;
41556;SDS011;27720;51.992;5.890;2022-11-22T17:43:41;6.72;;;4.35;;
41556;SDS011;27720;51.992;5.890;2022-11-22T17:46:54;6.90;;;3.20;;
41556;SDS011;27720;51.992;5.890;2022-11-22T17:49:37;5.65;;;3.67;;
41556;SDS011;27720;51.992;5.890;2022-11-22T17:52:28;5.30;;;3.08;;
41556;SDS011;27720;51.992;5.890;2022-11-22T17:55:00;3.97;;;2.75;;
41556;SDS011;27720;51.992;5.890;2022-11-22T17:57:35;4.93;;;3.13;;
41556;SDS011;27720;51.992;5.890;2022-11-22T18:00:03;8.35;;;3.38;;
41556;SDS011;27720;51.992;5.890;2022-11-22T18:02:32;5.88;;;3.92;;
41556;SDS011;27720;51.992;5.890;2022-11-22T18:05:08;6.65;;;3.80;;
41556;SDS011;27720;51.992;5.890;2022-11-22T18:07:52;5.88;;;3.67;;
41556;SDS011;27720;51.992;5.890;2022-11-22T18:10:28;7.43;;;3.97;;
41556;SDS011;27720;51.992;5.890;2022-11-22T18:13:00;6.70;;;4.05;;
41556;SDS011;27720;51.992;5.890;2022-11-22T18:15:37;5.75;;;3.72;;
41556;SDS011;27720;51.992;5.890;2022-11-22T18:18:10;6.20;;;3.72;;
41556;SDS011;27720;51.992;5.890;2022-11-22T18:21:10;6.45;;;3.88;;
41556;SDS011;27720;51.992;5.890;2022-11-22T18:23:45;6.30;;;3.85;;
41556;SDS011;27720;51.992;5.890;2022-11-22T18:26:11;6.35;;;3.97;;
41556;SDS011;27720;51.992;5.890;2022-11-22T18:28:37;6.45;;;3.88;;
41556;SDS011;27720;51.992;5.890;2022-11-22T18:37:45;7.70;;;4.10;;
41556;SDS011;27720;51.992;5.890;2022-11-22T18:41:03;6.65;;;4.28;;
41556;SDS011;27720;51.992;5.890;2022-11-22T18:44:42;6.47;;;3.75;;
41556;SDS011;27720;51.992;5.890;2022-11-22T18:47:11;6.32;;;4.28;;
41556;SDS011;27720;51.992;5.890;2022-11-22T18:50:17;6.78;;;3.95;;
41556;SDS011;27720;51.992;5.890;2022-11-22T18:52:49;5.10;;;3.40;;
41556;SDS011;27720;51.992;5.890;2022-11-22T18:55:15;8.30;;;4.30;;
41556;SDS011;27720;51.992;5.890;2022-11-22T18:58:25;6.85;;;4.00;;
41556;SDS011;27720;51.992;5.890;2022-11-22T19:01:16;7.95;;;3.78;;
41556;SDS011;27720;51.992;5.890;2022-11-22T19:03:49;5.22;;;3.30;;
41556;SDS011;27720;51.992;5.890;2022-11-22T19:06:36;9.45;;;3.78;;
41556;SDS011;27720;51.992;5.890;2022-11-22T19:09:27;8.10;;;3.38;;
41556;SDS011;27720;51.992;5.890;2022-11-22T19:12:01;6.47;;;3.30;;
41556;SDS011;27720;51.992;5.890;2022-11-22T19:14:30;7.28;;;4.20;;
41556;SDS011;27720;51.992;5.890;2022-11-22T19:16:58;5.75;;;3.33;;
41556;SDS011;27720;51.992;5.890;2022-11-22T19:19:24;6.03;;;3.17;;
41556;SDS011;27720;51.992;5.890;2022-11-22T19:46:44;8.80;;;3.10;;
41556;SDS011;27720;51.992;5.890;2022-11-22T19:49:13;8.50;;;4.05;;
41556;SDS011;27720;51.992;5.890;2022-11-22T19:51:41;6.63;;;3.92;;
41556;SDS011;27720;51.992;5.890;2022-11-22T19:54:07;6.10;;;4.18;;
41556;SDS011;27720;51.992;5.890;2022-11-22T19:56:34;6.97;;;4.43;;
41556;SDS011;27720;51.992;5.890;2022-11-22T19:59:03;10.27;;;4.35;;
41556;SDS011;27720;51.992;5.890;2022-11-22T20:02:00;6.82;;;4.20;;
41556;SDS011;27720;51.992;5.890;2022-11-22T20:04:53;13.60;;;5.28;;
41556;SDS011;27720;51.992;5.890;2022-11-22T20:07:19;6.30;;;4.43;;
41556;SDS011;27720;51.992;5.890;2022-11-22T20:09:48;8.63;;;4.05;;
41556;SDS011;27720;51.992;5.890;2022-11-22T20:12:17;6.20;;;3.45;;
41556;SDS011;27720;51.992;5.890;2022-11-22T20:14:43;6.95;;;3.88;;
41556;SDS011;27720;51.992;5.890;2022-11-22T20:17:08;7.13;;;3.88;;
41556;SDS011;27720;51.992;5.890;2022-11-22T20:19:34;11.32;;;4.75;;
41556;SDS011;27720;51.992;5.890;2022-11-22T20:22:00;8.75;;;4.00;;
41556;SDS011;27720;51.992;5.890;2022-11-22T20:24:29;8.93;;;3.42;;
41556;SDS011;27720;51.992;5.890;2022-11-22T20:26:57;8.05;;;3.90;;
41556;SDS011;27720;51.992;5.890;2022-11-22T20:29:26;9.70;;;4.20;;
41556;SDS011;27720;51.992;5.890;2022-11-22T20:31:55;8.27;;;3.70;;
41556;SDS011;27720;51.992;5.890;2022-11-22T20:34:23;10.50;;;3.95;;
41556;SDS011;27720;51.992;5.890;2022-11-22T20:36:49;13.50;;;4.57;;
41556;SDS011;27720;51.992;5.890;2022-11-22T20:39:15;9.93;;;4.05;;
41556;SDS011;27720;51.992;5.890;2022-11-22T20:41:44;6.30;;;3.20;;
41556;SDS011;27720;51.992;5.890;2022-11-22T20:44:10;5.32;;;3.67;;
41556;SDS011;27720;51.992;5.890;2022-11-22T20:46:40;17.30;;;4.47;;
41556;SDS011;27720;51.992;5.890;2022-11-22T20:49:09;9.93;;;4.30;;
41556;SDS011;27720;51.992;5.890;2022-11-22T20:51:40;10.10;;;3.90;;
41556;SDS011;27720;51.992;5.890;2022-11-22T20:54:11;9.32;;;4.38;;
41556;SDS011;27720;51.992;5.890;2022-11-22T20:56:37;8.43;;;4.47;;
41556;SDS011;27720;51.992;5.890;2022-11-22T20:59:03;8.07;;;4.35;;
41556;SDS011;27720;51.992;5.890;2022-11-22T21:01:29;9.73;;;4.18;;
41556;SDS011;27720;51.992;5.890;2022-11-22T21:03:58;9.55;;;4.30;;
41556;SDS011;27720;51.992;5.890;2022-11-22T21:06:27;9.27;;;4.50;;
41556;SDS011;27720;51.992;5.890;2022-11-22T21:08:53;9.05;;;4.70;;
41556;SDS011;27720;51.992;5.890;2022-11-22T21:11:31;11.25;;;4.68;;
41556;SDS011;27720;51.992;5.890;2022-11-22T21:14:36;16.17;;;4.13;;
41556;SDS011;27720;51.992;5.890;2022-11-22T21:17:05;8.10;;;4.60;;
41556;SDS011;27720;51.992;5.890;2022-11-22T21:19:31;13.38;;;5.72;;
41556;SDS011;27720;51.992;5.890;2022-11-22T21:21:57;7.82;;;4.32;;
41556;SDS011;27720;51.992;5.890;2022-11-22T21:24:26;5.75;;;3.80;;
41556;SDS011;27720;51.992;5.890;2022-11-22T21:26:52;7.72;;;4.30;;
41556;SDS011;27720;51.992;5.890;2022-11-22T21:29:18;7.63;;;4.15;;
41556;SDS011;27720;51.992;5.890;2022-11-22T21:31:45;10.88;;;4.63;;
41556;SDS011;27720;51.992;5.890;2022-11-22T21:34:15;11.10;;;4.80;;
41556;SDS011;27720;51.992;5.890;2022-11-22T21:36:43;9.25;;;3.95;;
41556;SDS011;27720;51.992;5.890;2022-11-22T21:39:11;9.80;;;4.00;;
41556;SDS011;27720;51.992;5.890;2022-11-22T21:41:37;12.52;;;3.85;;
41556;SDS011;27720;51.992;5.890;2022-11-22T21:44:03;5.55;;;3.22;;
41556;SDS011;27720;51.992;5.890;2022-11-22T21:46:29;6.30;;;3.33;;
41556;SDS011;27720;51.992;5.890;2022-11-22T21:48:55;9.10;;;3.72;;
41556;SDS011;27720;51.992;5.890;2022-11-22T21:51:21;10.10;;;3.40;;
41556;SDS011;27720;51.992;5.890;2022-11-22T21:53:50;8.25;;;4.28;;
41556;SDS011;27720;51.992;5.890;2022-11-22T21:56:18;10.43;;;3.70;;
41556;SDS011;27720;51.992;5.890;2022-11-22T21:58:44;6.53;;;3.35;;
41556;SDS011;27720;51.992;5.890;2022-11-22T22:01:10;6.25;;;3.40;;
41556;SDS011;27720;51.992;5.890;2022-11-22T22:03:36;11.57;;;4.13;;
41556;SDS011;27720;51.992;5.890;2022-11-22T22:06:05;4.47;;;2.97;;
41556;SDS011;27720;51.992;5.890;2022-11-22T22:08:34;6.82;;;3.72;;
41556;SDS011;27720;51.992;5.890;2022-11-22T22:11:07;8.43;;;3.97;;
41556;SDS011;27720;51.992;5.890;2022-11-22T22:13:33;10.88;;;3.85;;
41556;SDS011;27720;51.992;5.890;2022-11-22T22:16:05;8.57;;;3.28;;
41556;SDS011;27720;51.992;5.890;2022-11-22T22:18:33;8.25;;;3.53;;
41556;SDS011;27720;51.992;5.890;2022-11-22T22:21:02;6.00;;;3.70;;
41556;SDS011;27720;51.992;5.890;2022-11-22T22:23:33;10.25;;;2.75;;
41556;SDS011;27720;51.992;5.890;2022-11-22T22:26:11;8.00;;;3.75;;
41556;SDS011;27720;51.992;5.890;2022-11-22T22:28:39;5.28;;;2.95;;
41556;SDS011;27720;51.992;5.890;2022-11-22T22:31:14;6.28;;;4.13;;
41556;SDS011;27720;51.992;5.890;2022-11-22T22:33:55;11.30;;;3.50;;
41556;SDS011;27720;51.992;5.890;2022-11-22T22:36:25;10.98;;;3.90;;
41556;SDS011;27720;51.992;5.890;2022-11-22T22:38:52;7.65;;;4.32;;
41556;SDS011;27720;51.992;5.890;2022-11-22T22:41:19;6.53;;;3.90;;
41556;SDS011;27720;51.992;5.890;2022-11-22T22:43:45;12.40;;;3.75;;
41556;SDS011;27720;51.992;5.890;2022-11-22T22:46:13;9.30;;;3.00;;
41556;SDS011;27720;51.992;5.890;2022-11-22T22:48:41;7.80;;;3.22;;
41556;SDS011;27720;51.992;5.890;2022-11-22T22:51:09;7.45;;;3.13;;
41556;SDS011;27720;51.992;5.890;2022-11-22T22:53:36;8.68;;;3.60;;
41556;SDS011;27720;51.992;5.890;2022-11-22T22:56:02;9.05;;;3.83;;
41556;SDS011;27720;51.992;5.890;2022-11-22T22:58:28;7.20;;;3.75;;
41556;SDS011;27720;51.992;5.890;2022-11-22T23:01:04;12.15;;;3.53;;
41556;SDS011;27720;51.992;5.890;2022-11-22T23:03:34;4.55;;;2.63;;
41556;SDS011;27720;51.992;5.890;2022-11-22T23:06:04;6.35;;;3.17;;
41556;SDS011;27720;51.992;5.890;2022-11-22T23:08:31;6.93;;;3.03;;
41556;SDS011;27720;51.992;5.890;2022-11-22T23:11:07;7.53;;;2.30;;
41556;SDS011;27720;51.992;5.890;2022-11-22T23:13:34;5.22;;;2.88;;
41556;SDS011;27720;51.992;5.890;2022-11-22T23:16:06;6.45;;;3.00;;
41556;SDS011;27720;51.992;5.890;2022-11-22T23:18:34;7.50;;;3.13;;
41556;SDS011;27720;51.992;5.890;2022-11-22T23:21:11;9.10;;;3.13;;
41556;SDS011;27720;51.992;5.890;2022-11-22T23:23:38;6.88;;;3.17;;
41556;SDS011;27720;51.992;5.890;2022-11-22T23:26:05;5.97;;;2.97;;
41556;SDS011;27720;51.992;5.890;2022-11-22T23:28:42;10.07;;;3.65;;
41556;SDS011;27720;51.992;5.890;2022-11-22T23:31:09;4.97;;;3.10;;
41556;SDS011;27720;51.992;5.890;2022-11-22T23:33:37;7.07;;;2.58;;
41556;SDS011;27720;51.992;5.890;2022-11-22T23:36:05;7.18;;;3.30;;
41556;SDS011;27720;51.992;5.890;2022-11-22T23:38:42;7.45;;;3.42;;
41556;SDS011;27720;51.992;5.890;2022-11-22T23:41:11;6.15;;;3.65;;
41556;SDS011;27720;51.992;5.890;2022-11-22T23:43:42;7.15;;;4.10;;
41556;SDS011;27720;51.992;5.890;2022-11-22T23:46:09;9.65;;;4.18;;
41556;SDS011;27720;51.992;5.890;2022-11-22T23:48:53;6.88;;;3.63;;
41556;SDS011;27720;51.992;5.890;2022-11-22T23:51:20;12.00;;;4.75;;
41556;SDS011;27720;51.992;5.890;2022-11-22T23:53:46;10.80;;;4.13;;
41556;SDS011;27720;51.992;5.890;2022-11-22T23:56:14;10.25;;;4.03;;
41556;SDS011;27720;51.992;5.890;2022-11-22T23:58:43;11.55;;;3.97;;
